Terminal Aerodrome Forecast
Issued by NWS

Home | Current Version | Previous Version | Text Only | Print | Product List | Glossary On
Versions: 1 2 3 4 5 6 7 8 9 10 11 12 13 14 15 16 17 18 19 20 21
000
FTUS42 KFFC 241700
TAFPDK
TAF
KPDK 241737Z 2418/2518 26008G16KT P6SM VCSH SCT035 BKN060
      TEMPO 2418/2422 5SM -TSRA BR BKN035CB
     FM250000 29005KT P6SM VCSH SCT050 BKN100
     FM250200 00000KT P6SM SCT120
     FM251100 00000KT 5SM BR SCT120
     FM251400 27004KT P6SM SCT060=

USA.gov is the U.S. government's official web portal to all federal, state and local government web resources and services.